Time;durP1;ratioP1;P1;durP2;ratioP2;P2;SDS_P1;SDS_P2;PMS_P1;PMS_P2;Temp;Humidity;BMP_temperature;BMP_pressure;BME280_temperature;BME280_humidity;BME280_pressure;Samples;Min_cycle;Max_cycle;Signal;HPM_P1;HPM_P2
2020/02/20 00:00:40;;;;;;;5.7;2.5;;;;;;;;;;;;;
2020/02/20 00:05:49;;;;;;;5;2.3;;;;;;;;;;;;;
2020/02/20 00:08:16;;;;;;;4.8;2.6;;;;;;;;;;;;;
2020/02/20 00:13:09;;;;;;;4.9;2.5;;;;;;;;;;;;;
2020/02/20 00:17:59;;;;;;;7.5;2.9;;;;;;;;;;;;;
2020/02/20 00:20:35;;;;;;;3.4;2.3;;;;;;;;;;;;;
2020/02/20 00:22:51;;;;;;;2.9;2.2;;;;;;;;;;;;;
2020/02/20 00:25:15;;;;;;;3.6;2;;;;;;;;;;;;;
2020/02/20 00:27:42;;;;;;;4;2;;;;;;;;;;;;;
2020/02/20 00:30:12;;;;;;;3.4;2;;;;;;;;;;;;;
2020/02/20 00:32:40;;;;;;;3.8;1.5;;;;;;;;;;;;;
2020/02/20 00:35:06;;;;;;;4;1.4;;;;;;;;;;;;;
2020/02/20 00:37:32;;;;;;;3.5;1.8;;;;;;;;;;;;;
2020/02/20 00:40:00;;;;;;;3.5;1.6;;;;;;;;;;;;;
2020/02/20 00:42:22;;;;;;;3.3;1.6;;;;;;;;;;;;;
2020/02/20 00:44:48;;;;;;;3.6;1.9;;;;;;;;;;;;;
2020/02/20 00:47:19;;;;;;;3.9;1.8;;;;;;;;;;;;;
2020/02/20 00:49:39;;;;;;;4.2;2;;;;;;;;;;;;;
2020/02/20 00:52:05;;;;;;;3.7;2.2;;;;;;;;;;;;;
2020/02/20 00:54:33;;;;;;;4.3;2.3;;;;;;;;;;;;;
2020/02/20 00:56:57;;;;;;;4.9;2.7;;;;;;;;;;;;;
2020/02/20 00:59:31;;;;;;;6.5;3.1;;;;;;;;;;;;;
2020/02/20 01:01:58;;;;;;;7.2;4;;;;;;;;;;;;;
2020/02/20 01:04:35;;;;;;;9.2;4.4;;;;;;;;;;;;;
2020/02/20 01:06:49;;;;;;;11.1;4.7;;;;;;;;;;;;;
2020/02/20 01:09:18;;;;;;;10.6;5.6;;;;;;;;;;;;;
2020/02/20 01:11:47;;;;;;;17.7;7.9;;;;;;;;;;;;;
2020/02/20 01:14:11;;;;;;;20.1;9.3;;;;;;;;;;;;;
2020/02/20 01:16:53;;;;;;;22.3;9.2;;;;;;;;;;;;;
2020/02/20 01:19:16;;;;;;;14.9;6.9;;;;;;;;;;;;;
2020/02/20 01:21:44;;;;;;;12.7;6.3;;;;;;;;;;;;;
2020/02/20 01:24:04;;;;;;;9.7;5.3;;;;;;;;;;;;;
2020/02/20 01:26:39;;;;;;;11.1;5.6;;;;;;;;;;;;;
2020/02/20 01:29:05;;;;;;;8.5;4.8;;;;;;;;;;;;;
2020/02/20 01:31:32;;;;;;;6;4.3;;;;;;;;;;;;;
2020/02/20 01:33:55;;;;;;;8.1;3.9;;;;;;;;;;;;;
2020/02/20 01:36:18;;;;;;;4;2.5;;;;;;;;;;;;;
2020/02/20 01:38:42;;;;;;;5.1;2.4;;;;;;;;;;;;;
2020/02/20 01:41:09;;;;;;;4.7;3;;;;;;;;;;;;;
2020/02/20 01:43:35;;;;;;;5.5;3.1;;;;;;;;;;;;;
2020/02/20 01:45:59;;;;;;;5.5;3.6;;;;;;;;;;;;;
2020/02/20 01:48:24;;;;;;;7.1;4;;;;;;;;;;;;;
2020/02/20 01:50:50;;;;;;;7.1;3.9;;;;;;;;;;;;;
2020/02/20 01:53:15;;;;;;;7.3;4.7;;;;;;;;;;;;;
2020/02/20 01:55:42;;;;;;;10.5;6.4;;;;;;;;;;;;;
2020/02/20 01:58:40;;;;;;;6.9;3.9;;;;;;;;;;;;;
2020/02/20 02:10:50;;;;;;;5.7;2.8;;;;;;;;;;;;;
2020/02/20 02:13:14;;;;;;;5.9;3.6;;;;;;;;;;;;;
2020/02/20 02:15:45;;;;;;;5.3;3.4;;;;;;;;;;;;;
2020/02/20 02:18:13;;;;;;;5.6;3.4;;;;;;;;;;;;;
2020/02/20 02:20:38;;;;;;;6.7;3.6;;;;;;;;;;;;;
2020/02/20 02:23:06;;;;;;;6.5;3.4;;;;;;;;;;;;;
2020/02/20 02:25:31;;;;;;;5.4;3.4;;;;;;;;;;;;;
2020/02/20 02:27:57;;;;;;;6.3;3.6;;;;;;;;;;;;;
2020/02/20 02:30:21;;;;;;;6.9;3.1;;;;;;;;;;;;;
2020/02/20 02:32:46;;;;;;;7.8;3.4;;;;;;;;;;;;;
2020/02/20 02:35:29;;;;;;;5.4;2.9;;;;;;;;;;;;;
2020/02/20 02:37:41;;;;;;;5.2;2.4;;;;;;;;;;;;;
2020/02/20 02:40:04;;;;;;;4.8;2.3;;;;;;;;;;;;;
2020/02/20 02:42:28;;;;;;;3.4;1.7;;;;;;;;;;;;;
2020/02/20 02:44:52;;;;;;;4;1.9;;;;;;;;;;;;;
2020/02/20 02:47:21;;;;;;;4.3;2;;;;;;;;;;;;;
2020/02/20 02:49:44;;;;;;;3.9;2;;;;;;;;;;;;;
2020/02/20 02:52:07;;;;;;;3.8;2.4;;;;;;;;;;;;;
2020/02/20 02:54:33;;;;;;;7.4;3.1;;;;;;;;;;;;;
2020/02/20 02:57:15;;;;;;;5.2;2.7;;;;;;;;;;;;;
2020/02/20 02:59:29;;;;;;;6.5;2.9;;;;;;;;;;;;;
2020/02/20 03:01:55;;;;;;;5.3;3.1;;;;;;;;;;;;;
2020/02/20 03:04:44;;;;;;;5.9;3;;;;;;;;;;;;;
2020/02/20 03:07:09;;;;;;;6.2;3.9;;;;;;;;;;;;;
2020/02/20 03:09:37;;;;;;;5.6;3;;;;;;;;;;;;;
2020/02/20 03:14:45;;;;;;;9.4;5.4;;;;;;;;;;;;;
2020/02/20 03:17:10;;;;;;;7.3;4.3;;;;;;;;;;;;;
2020/02/20 03:19:39;;;;;;;4.5;2.4;;;;;;;;;;;;;
2020/02/20 03:22:12;;;;;;;7;3.8;;;;;;;;;;;;;
2020/02/20 03:24:39;;;;;;;9.4;5;;;;;;;;;;;;;
2020/02/20 03:27:09;;;;;;;7.1;4.2;;;;;;;;;;;;;
2020/02/20 03:29:39;;;;;;;6.6;3.3;;;;;;;;;;;;;
2020/02/20 03:32:37;;;;;;;13.3;6.6;;;;;;;;;;;;;
2020/02/20 03:34:49;;;;;;;4.8;2.7;;;;;;;;;;;;;
2020/02/20 03:37:13;;;;;;;5.2;2.9;;;;;;;;;;;;;
2020/02/20 03:39:44;;;;;;;6.2;2.6;;;;;;;;;;;;;
2020/02/20 03:42:04;;;;;;;6.5;2.9;;;;;;;;;;;;;
2020/02/20 03:44:28;;;;;;;18.2;6.6;;;;;;;;;;;;;
2020/02/20 03:46:54;;;;;;;14.8;5.6;;;;;;;;;;;;;
2020/02/20 03:49:37;;;;;;;4.9;2.9;;;;;;;;;;;;;
2020/02/20 03:52:39;;;;;;;6.6;3.1;;;;;;;;;;;;;
2020/02/20 03:54:31;;;;;;;7;3.5;;;;;;;;;;;;;
2020/02/20 03:56:55;;;;;;;5.1;2.6;;;;;;;;;;;;;
2020/02/20 03:59:19;;;;;;;4.5;2.4;;;;;;;;;;;;;
2020/02/20 04:02:32;;;;;;;3.8;2;;;;;;;2.16;81.8584;944.2949;;;;
2020/02/20 04:05:02;;;;;;;3.4;1.7;;;;;;;1.99;81.88086;944.3275;;;;
2020/02/20 04:07:30;;;;;;;3.3;1.9;;;;;;;1.94;82.00488;944.3224;;;;
2020/02/20 04:10:02;;;;;;;4.6;2;;;;;;;1.9;81.84082;944.3315;;;;
2020/02/20 04:12:25;;;;;;;3.6;1.9;;;;;;;1.73;82.5459;944.4172;;;;
2020/02/20 04:14:58;;;;;;;3.9;1.9;;;;;;;1.86;82.1123;944.3073;;;;
2020/02/20 04:17:26;;;;;;;3.3;1.8;;;;;;;1.97;81.75391;944.2802;;;;
2020/02/20 04:20:00;;;;;;;4.5;1.9;;;;;;;2.05;81.66895;944.3212;;;;
2020/02/20 04:22:27;;;;;;;3.8;2.2;;;;;;;2.05;81.91504;944.3166;;;;
2020/02/20 04:24:58;;;;;;;4.6;2.3;;;;;;;2.01;82.05176;944.3022;;;;
2020/02/20 04:27:24;;;;;;;6;2.6;;;;;;;2.08;82.02148;944.2216;;;;
2020/02/20 04:30:07;;;;;;;6.1;2.7;;;;;;;2.07;81.8291;944.2917;;;;
2020/02/20 04:32:24;;;;;;;6.7;2.8;;;;;;;2.04;82.5293;944.2321;;;;
2020/02/20 04:35:18;;;;;;;5.8;2.5;;;;;;;2.08;82.35742;944.2514;;;;
2020/02/20 04:37:23;;;;;;;4.5;1.6;;;;;;;2.02;82.40234;944.111;;;;
2020/02/20 04:39:48;;;;;;;3.7;1.8;;;;;;;1.98;82.31348;944.1429;;;;
2020/02/20 04:42:21;;;;;;;3.6;1.9;;;;;;;2.03;82.4248;944.0911;;;;
2020/02/20 04:45:03;;;;;;;4.2;1.9;;;;;;;2.06;82.57617;944.1175;;;;
2020/02/20 04:47:34;;;;;;;5.6;2.2;;;;;;;2.12;82.36426;944.027;;;;
2020/02/20 04:50:14;;;;;;;4.6;1.7;;;;;;;2.06;82.39844;944.1247;;;;
2020/02/20 04:52:49;;;;;;;3.9;1.6;;;;;;;1.77;83.32715;944.0849;;;;
2020/02/20 04:55:13;;;;;;;4.2;1.6;;;;;;;1.95;82.53223;944.0267;;;;
2020/02/20 04:57:39;;;;;;;4.4;1.7;;;;;;;1.86;82.99609;944.0363;;;;
2020/02/20 05:00:05;;;;;;;3.7;1.6;;;;;;;1.83;83.22754;944.0007;;;;
2020/02/20 05:02:31;;;;;;;3.3;1.6;;;;;;;1.9;83.2959;943.8769;;;;
2020/02/20 05:05:14;;;;;;;4.5;1.6;;;;;;;1.99;83.3584;943.9377;;;;
2020/02/20 05:07:35;;;;;;;3.4;1.4;;;;;;;2.03;82.89551;943.8653;;;;
2020/02/20 05:10:03;;;;;;;2.8;1.4;;;;;;;;;;;;;
2020/02/20 05:12:54;;;;;;;2.5;1.2;;;;;;;;;;;;;
2020/02/20 05:15:08;;;;;;;3.2;1.7;;;;;;;;;;;;;
2020/02/20 05:17:23;;;;;;;2.7;1.3;;;;;;;;;;;;;
2020/02/20 05:19:51;;;;;;;4.9;1.5;;;;;;;;;;;;;
2020/02/20 05:22:17;;;;;;;4.7;1.6;;;;;;;;;;;;;
2020/02/20 05:24:46;;;;;;;5.3;1.7;;;;;;;;;;;;;
2020/02/20 05:27:13;;;;;;;6.6;2.6;;;;;;;;;;;;;
2020/02/20 05:29:38;;;;;;;7.9;3.7;;;;;;;;;;;;;
2020/02/20 05:32:05;;;;;;;8.3;4;;;;;;;;;;;;;
2020/02/20 05:34:32;;;;;;;5.2;2.6;;;;;;;;;;;;;
2020/02/20 05:36:56;;;;;;;6.9;3.8;;;;;;;;;;;;;
2020/02/20 05:39:20;;;;;;;9;5.4;;;;;;;;;;;;;
2020/02/20 05:41:47;;;;;;;9.8;5.4;;;;;;;;;;;;;
2020/02/20 05:44:16;;;;;;;12.2;6.7;;;;;;;;;;;;;
2020/02/20 05:46:38;;;;;;;13.1;8.3;;;;;;;;;;;;;
2020/02/20 05:49:07;;;;;;;16.3;8.9;;;;;;;;;;;;;
2020/02/20 05:51:33;;;;;;;14.1;8.8;;;;;;;;;;;;;
2020/02/20 05:53:56;;;;;;;16.2;9.9;;;;;;;;;;;;;
2020/02/20 05:58:44;;;;;;;16.3;9;;;;;;;;;;;;;
2020/02/20 06:01:13;;;;;;;12.5;8.3;;;;;;;;;;;;;
2020/02/20 06:03:34;;;;;;;12.8;7;;;;;;;;;;;;;
2020/02/20 06:06:01;;;;;;;16;11;;;;;;;;;;;;;
2020/02/20 06:08:24;;;;;;;15.4;8.8;;;;;;;;;;;;;
2020/02/20 06:11:03;;;;;;;14.4;8.6;;;;;;;;;;;;;
2020/02/20 06:13:17;;;;;;;14.3;9;;;;;;;;;;;;;
2020/02/20 06:18:06;;;;;;;7.1;4;;;;;;;;;;;;;
2020/02/20 06:20:40;;;;;;;6.8;3.2;;;;;;;;;;;;;
2020/02/20 06:23:10;;;;;;;5;2.2;;;;;;;;;;;;;
2020/02/20 06:29:20;;;;;;;6.1;2.4;;;;;;;;;;;;;
2020/02/20 06:31:22;;;;;;;5.9;2.9;;;;;;;;;;;;;
2020/02/20 06:33:40;;;;;;;4.1;2;;;;;;;;;;;;;
2020/02/20 06:36:06;;;;;;;7.1;3.6;;;;;;;;;;;;;
2020/02/20 06:38:31;;;;;;;10.1;5.2;;;;;;;;;;;;;
2020/02/20 06:41:06;;;;;;;14.7;10.2;;;;;;;;;;;;;
2020/02/20 06:43:37;;;;;;;10.8;7.1;;;;;;;;;;;;;
2020/02/20 06:46:09;;;;;;;10.4;6.4;;;;;;;;;;;;;
2020/02/20 06:51:02;;;;;;;7.3;4.4;;;;;;;;;;;;;
2020/02/20 06:53:24;;;;;;;6.6;3.6;;;;;;;;;;;;;
2020/02/20 06:56:11;;;;;;;7.4;3.3;;;;;;;;;;;;;
2020/02/20 06:58:22;;;;;;;4.1;2.4;;;;;;;;;;;;;
2020/02/20 07:00:48;;;;;;;5.7;2;;;;;;;;;;;;;
2020/02/20 07:03:16;;;;;;;5.8;2;;;;;;;;;;;;;
2020/02/20 07:05:43;;;;;;;4.2;1.8;;;;;;;;;;;;;
2020/02/20 07:08:06;;;;;;;4.3;1.8;;;;;;;;;;;;;
2020/02/20 07:10:34;;;;;;;3;1.7;;;;;;;;;;;;;
2020/02/20 07:12:59;;;;;;;4.8;1.5;;;;;;;;;;;;;
2020/02/20 07:15:24;;;;;;;4.3;1.6;;;;;;;;;;;;;
2020/02/20 07:17:48;;;;;;;4.6;2.1;;;;;;;;;;;;;
2020/02/20 07:20:16;;;;;;;6.5;3.5;;;;;;;;;;;;;
2020/02/20 07:25:04;;;;;;;6.3;2.7;;;;;;;;;;;;;
2020/02/20 07:27:29;;;;;;;3.9;2;;;;;;;;;;;;;
2020/02/20 07:29:55;;;;;;;4.8;2.4;;;;;;;;;;;;;
2020/02/20 07:35:19;;;;;;;9;6.3;;;;;;;;;;;;;
2020/02/20 07:37:50;;;;;;;8.2;6.1;;;;;;;;;;;;;
2020/02/20 07:40:11;;;;;;;7.2;5.4;;;;;;;;;;;;;
2020/02/20 07:43:06;;;;;;;7.3;4.6;;;;;;;;;;;;;
2020/02/20 07:45:05;;;;;;;6.5;4.2;;;;;;;;;;;;;
2020/02/20 07:47:29;;;;;;;7;3.2;;;;;;;;;;;;;
2020/02/20 07:49:54;;;;;;;5.6;3.4;;;;;;;;;;;;;
2020/02/20 07:52:28;;;;;;;5.2;3.3;;;;;;;;;;;;;
2020/02/20 07:54:51;;;;;;;7.3;3.8;;;;;;;;;;;;;
2020/02/20 07:57:11;;;;;;;7.5;3.8;;;;;;;;;;;;;
2020/02/20 07:59:41;;;;;;;7.2;4.2;;;;;;;;;;;;;
2020/02/20 08:02:06;;;;;;;7.5;4.6;;;;;;;;;;;;;
2020/02/20 08:04:31;;;;;;;11.4;4.4;;;;;;;;;;;;;
2020/02/20 08:06:56;;;;;;;11.2;7;;;;;;;;;;;;;
2020/02/20 08:09:28;;;;;;;13.1;8.3;;;;;;;;;;;;;
2020/02/20 08:11:46;;;;;;;15.6;8.4;;;;;;;;;;;;;
2020/02/20 08:14:13;;;;;;;11.5;6.5;;;;;;;;;;;;;
2020/02/20 08:16:41;;;;;;;8.6;4.3;;;;;;;;;;;;;
2020/02/20 08:19:05;;;;;;;4.6;2.8;;;;;;;;;;;;;
2020/02/20 08:21:30;;;;;;;5.5;3.2;;;;;;;;;;;;;
2020/02/20 08:23:55;;;;;;;6.9;3.3;;;;;;;;;;;;;
2020/02/20 08:26:21;;;;;;;5.3;3.2;;;;;;;;;;;;;
2020/02/20 08:29:10;;;;;;;7.5;4.5;;;;;;;;;;;;;
2020/02/20 08:31:42;;;;;;;6.7;4.9;;;;;;;;;;;;;
2020/02/20 08:34:07;;;;;;;7.4;5;;;;;;;;;;;;;
2020/02/20 08:36:32;;;;;;;5.2;4;;;;;;;;;;;;;
2020/02/20 08:38:58;;;;;;;17.1;9.2;;;;;;;;;;;;;
2020/02/20 08:41:29;;;;;;;17.2;8.6;;;;;;;;;;;;;
2020/02/20 08:43:53;;;;;;;9.6;5.4;;;;;;;;;;;;;
2020/02/20 08:46:20;;;;;;;7.8;3.3;;;;;;;;;;;;;
2020/02/20 08:48:52;;;;;;;4.8;2.5;;;;;;;;;;;;;
2020/02/20 08:51:24;;;;;;;3.7;1.9;;;;;;;;;;;;;
2020/02/20 08:53:48;;;;;;;3.8;1.7;;;;;;;;;;;;;
2020/02/20 08:56:12;;;;;;;4.5;2;;;;;;;;;;;;;
2020/02/20 08:58:42;;;;;;;3.7;1.6;;;;;;;;;;;;;
2020/02/20 09:01:07;;;;;;;4.8;1.8;;;;;;;;;;;;;
2020/02/20 09:03:32;;;;;;;5.1;1.7;;;;;;;;;;;;;
2020/02/20 09:06:35;;;;;;;3.3;1.7;;;;;;;;;;;;;
2020/02/20 09:10:48;;;;;;;4.4;2;;;;;;;;;;;;;
2020/02/20 09:13:21;;;;;;;2.7;1.5;;;;;;;;;;;;;
2020/02/20 09:15:43;;;;;;;2.8;1.4;;;;;;;;;;;;;
2020/02/20 09:20:52;;;;;;;2.4;1.2;;;;;;;;;;;;;
2020/02/20 09:23:19;;;;;;;3.3;1.5;;;;;;;;;;;;;
2020/02/20 09:25:46;;;;;;;3.9;1.6;;;;;;;;;;;;;
2020/02/20 09:28:09;;;;;;;3.3;1.7;;;;;;;;;;;;;
2020/02/20 09:30:42;;;;;;;4.1;1.6;;;;;;;;;;;;;
2020/02/20 09:33:04;;;;;;;4.2;1.2;;;;;;;;;;;;;
2020/02/20 09:35:25;;;;;;;4.6;1.4;;;;;;;;;;;;;
2020/02/20 09:37:52;;;;;;;4.9;1.8;;;;;;;;;;;;;
2020/02/20 09:40:22;;;;;;;7.5;1.9;;;;;;;;;;;;;
2020/02/20 09:42:44;;;;;;;5.4;1.6;;;;;;;;;;;;;
2020/02/20 09:45:09;;;;;;;6.3;1.9;;;;;;;;;;;;;
2020/02/20 09:47:42;;;;;;;10.8;3.2;;;;;;;;;;;;;
2020/02/20 09:50:00;;;;;;;17.3;5.5;;;;;;;;;;;;;
2020/02/20 09:52:26;;;;;;;15.4;3.6;;;;;;;;;;;;;
2020/02/20 09:57:23;;;;;;;5;2.7;;;;;;;;;;;;;
2020/02/20 09:59:56;;;;;;;8.1;3.8;;;;;;;;;;;;;
2020/02/20 10:02:16;;;;;;;7.6;2.4;;;;;;;;;;;;;
2020/02/20 10:04:50;;;;;;;11.4;3;;;;;;;;;;;;;
2020/02/20 10:07:11;;;;;;;9.5;2.5;;;;;;;;;;;;;
2020/02/20 10:12:01;;;;;;;7.4;2.3;;;;;;;;;;;;;
2020/02/20 10:14:27;;;;;;;6.9;2.4;;;;;;;;;;;;;
2020/02/20 10:17:18;;;;;;;7.6;2.2;;;;;;;;;;;;;
2020/02/20 10:19:49;;;;;;;7.7;2.1;;;;;;;;;;;;;
2020/02/20 10:22:14;;;;;;;5.7;2;;;;;;;;;;;;;
2020/02/20 10:24:43;;;;;;;5.4;1.9;;;;;;;;;;;;;
2020/02/20 10:27:19;;;;;;;9.1;2.1;;;;;;;;;;;;;
2020/02/20 10:29:27;;;;;;;6.9;2;;;;;;;;;;;;;
2020/02/20 10:31:53;;;;;;;5.7;1.5;;;;;;;;;;;;;
2020/02/20 10:34:17;;;;;;;4.3;1.6;;;;;;;;;;;;;
2020/02/20 10:36:45;;;;;;;5;1.7;;;;;;;;;;;;;
2020/02/20 10:39:08;;;;;;;4.1;1.7;;;;;;;;;;;;;
2020/02/20 10:41:35;;;;;;;6.8;2.2;;;;;;;;;;;;;
2020/02/20 10:44:01;;;;;;;5.9;2.7;;;;;;;;;;;;;
2020/02/20 10:46:32;;;;;;;12.1;2.8;;;;;;;;;;;;;
2020/02/20 10:48:54;;;;;;;8;3.3;;;;;;;;;;;;;
2020/02/20 10:51:19;;;;;;;28.1;5.6;;;;;;;;;;;;;
2020/02/20 10:53:53;;;;;;;7.4;3;;;;;;;;;;;;;
2020/02/20 10:56:11;;;;;;;13.7;2.9;;;;;;;;;;;;;
2020/02/20 10:58:36;;;;;;;7.1;1.6;;;;;;;;;;;;;
2020/02/20 11:01:10;;;;;;;10.6;1.9;;;;;;;;;;;;;
2020/02/20 11:03:40;;;;;;;9.8;1.8;;;;;;;;;;;;;
2020/02/20 11:13:15;;;;;;;5.1;1.4;;;;;;;;;;;;;
2020/02/20 11:15:44;;;;;;;6.6;1.2;;;;;;;;;;;;;
2020/02/20 11:18:07;;;;;;;15.6;1.9;;;;;;;;;;;;;
2020/02/20 11:20:30;;;;;;;14.4;1.9;;;;;;;;;;;;;
2020/02/20 11:23:01;;;;;;;5.7;1.4;;;;;;;;;;;;;
2020/02/20 11:25:24;;;;;;;5.1;1.3;;;;;;;;;;;;;
2020/02/20 11:27:50;;;;;;;5.3;1.5;;;;;;;;;;;;;
2020/02/20 11:30:18;;;;;;;6.7;1.5;;;;;;;;;;;;;
2020/02/20 11:32:42;;;;;;;8.7;1.4;;;;;;;;;;;;;
2020/02/20 11:35:10;;;;;;;11.2;1.6;;;;;;;;;;;;;
2020/02/20 11:37:39;;;;;;;6.2;1.3;;;;;;;;;;;;;
2020/02/20 11:40:10;;;;;;;3.9;1.2;;;;;;;;;;;;;
2020/02/20 11:42:35;;;;;;;4.2;1.2;;;;;;;;;;;;;
2020/02/20 11:44:57;;;;;;;13.9;2.1;;;;;;;;;;;;;
2020/02/20 11:47:22;;;;;;;8.1;1.5;;;;;;;;;;;;;
2020/02/20 11:49:57;;;;;;;3.4;1.6;;;;;;;;;;;;;
2020/02/20 11:53:09;;;;;;;13.2;2.3;;;;;;;;;;;;;
2020/02/20 11:54:39;;;;;;;13.8;2;;;;;;;;;;;;;
2020/02/20 11:57:06;;;;;;;4.3;1.4;;;;;;;;;;;;;
2020/02/20 11:59:36;;;;;;;4;1.7;;;;;;;;;;;;;
2020/02/20 12:01:57;;;;;;;13.1;1.9;;;;;;;;;;;;;
2020/02/20 12:09:17;;;;;;;11.7;2;;;;;;;;;;;;;
2020/02/20 12:11:42;;;;;;;4.6;1.5;;;;;;;;;;;;;
2020/02/20 12:14:08;;;;;;;16.2;2.6;;;;;;;;;;;;;
2020/02/20 12:16:38;;;;;;;12.7;2.2;;;;;;;;;;;;;
2020/02/20 12:19:15;;;;;;;4.1;1.5;;;;;;;;;;;;;
2020/02/20 12:21:39;;;;;;;6;1.8;;;;;;;;;;;;;
2020/02/20 12:24:03;;;;;;;8.7;1.6;;;;;;;;;;;;;
2020/02/20 12:26:27;;;;;;;5.1;1.2;;;;;;;;;;;;;
2020/02/20 12:28:53;;;;;;;17.6;2.1;;;;;;;;;;;;;
2020/02/20 12:31:22;;;;;;;8.2;3.2;;;;;;;;;;;;;
2020/02/20 12:34:16;;;;;;;12.5;4.9;;;;;;;;;;;;;
2020/02/20 12:36:29;;;;;;;7.3;3.2;;;;;;;;;;;;;
2020/02/20 12:39:10;;;;;;;6.9;2.5;;;;;;;;;;;;;
2020/02/20 12:41:34;;;;;;;8;2;;;;;;;;;;;;;
2020/02/20 12:44:00;;;;;;;11.4;2.1;;;;;;;;;;;;;
2020/02/20 12:46:27;;;;;;;4.4;1.5;;;;;;;;;;;;;
2020/02/20 12:48:55;;;;;;;23.5;2.4;;;;;;;;;;;;;
2020/02/20 12:51:22;;;;;;;9.4;1.6;;;;;;;;;;;;;
2020/02/20 12:53:46;;;;;;;7;1.9;;;;;;;;;;;;;
2020/02/20 12:56:13;;;;;;;2.5;1.2;;;;;;;;;;;;;
2020/02/20 12:58:41;;;;;;;5.3;1.4;;;;;;;;;;;;;
2020/02/20 13:01:14;;;;;;;4.2;1.6;;;;;;;;;;;;;
2020/02/20 13:03:41;;;;;;;13.2;2.1;;;;;;;;;;;;;
2020/02/20 13:06:06;;;;;;;9.7;1.9;;;;;;;;;;;;;
2020/02/20 13:08:36;;;;;;;6.6;1.6;;;;;;;;;;;;;
2020/02/20 13:11:00;;;;;;;9.5;1.7;;;;;;;;;;;;;
2020/02/20 13:18:50;;;;;;;12.8;1.7;;;;;;;;;;;;;
2020/02/20 13:21:19;;;;;;;3.6;1.1;;;;;;;;;;;;;
2020/02/20 13:23:56;;;;;;;4.9;1.4;;;;;;;;;;;;;
2020/02/20 13:26:17;;;;;;;9.1;1.6;;;;;;;;;;;;;
2020/02/20 13:28:45;;;;;;;4.4;1.1;;;;;;;;;;;;;
2020/02/20 13:31:10;;;;;;;4.9;1.2;;;;;;;;;;;;;
2020/02/20 13:33:34;;;;;;;2.8;1;;;;;;;;;;;;;
2020/02/20 13:36:00;;;;;;;2;1.1;;;;;;;;;;;;;
2020/02/20 13:38:30;;;;;;;6.5;1.2;;;;;;;;;;;;;
2020/02/20 13:40:51;;;;;;;7.1;1.6;;;;;;;;;;;;;
2020/02/20 13:43:15;;;;;;;2.6;1.4;;;;;;;;;;;;;
2020/02/20 13:45:40;;;;;;;3;1.4;;;;;;;;;;;;;
2020/02/20 13:48:07;;;;;;;1.7;1.1;;;;;;;;;;;;;
2020/02/20 13:50:31;;;;;;;2.3;1.5;;;;;;;;;;;;;
2020/02/20 13:53:16;;;;;;;3.6;1.5;;;;;;;;;;;;;
2020/02/20 13:55:40;;;;;;;8.7;1.8;;;;;;;;;;;;;
2020/02/20 13:58:05;;;;;;;6.7;1.8;;;;;;;;;;;;;
2020/02/20 14:01:16;;;;;;;4.9;1.2;;;;;;;;;;;;;
2020/02/20 14:03:29;;;;;;;4.6;1.2;;;;;;;;;;;;;
2020/02/20 14:05:54;;;;;;;3.8;1.2;;;;;;;;;;;;;
2020/02/20 14:08:27;;;;;;;3.2;1.2;;;;;;;;;;;;;
2020/02/20 14:10:46;;;;;;;4.5;1.1;;;;;;;;;;;;;
2020/02/20 14:13:12;;;;;;;7.8;1.4;;;;;;;;;;;;;
2020/02/20 14:15:39;;;;;;;4.8;1.2;;;;;;;;;;;;;
2020/02/20 14:18:03;;;;;;;11.3;2;;;;;;;;;;;;;
2020/02/20 14:20:28;;;;;;;3.2;1.3;;;;;;;;;;;;;
2020/02/20 14:22:54;;;;;;;5.2;1.3;;;;;;;;;;;;;
2020/02/20 14:25:25;;;;;;;10.3;1.7;;;;;;;;;;;;;
2020/02/20 14:28:12;;;;;;;8.8;1.7;;;;;;;;;;;;;
2020/02/20 14:30:23;;;;;;;9.2;1.7;;;;;;;;;;;;;
2020/02/20 14:32:57;;;;;;;2.4;1;;;;;;;;;;;;;
2020/02/20 14:35:16;;;;;;;9.1;1.9;;;;;;;;;;;;;
2020/02/20 14:37:46;;;;;;;4.1;1.3;;;;;;;;;;;;;
2020/02/20 14:40:12;;;;;;;2.7;1.2;;;;;;;;;;;;;
2020/02/20 14:42:33;;;;;;;4;1.7;;;;;;;;;;;;;
2020/02/20 14:45:15;;;;;;;3;1.5;;;;;;;;;;;;;
2020/02/20 14:47:33;;;;;;;2;1.1;;;;;;;;;;;;;
2020/02/20 14:49:58;;;;;;;1.5;1.1;;;;;;;;;;;;;
2020/02/20 14:52:25;;;;;;;2;1.2;;;;;;;;;;;;;
2020/02/20 14:54:49;;;;;;;2.3;1;;;;;;;;;;;;;
2020/02/20 14:57:14;;;;;;;3.1;1.1;;;;;;;;;;;;;
2020/02/20 14:59:38;;;;;;;4.1;1.2;;;;;;;;;;;;;
2020/02/20 15:02:11;;;;;;;2;1;;;;;;;;;;;;;
2020/02/20 15:04:38;;;;;;;2.3;1.1;;;;;;;;;;;;;
2020/02/20 15:07:00;;;;;;;5.6;1.3;;;;;;;;;;;;;
2020/02/20 15:09:26;;;;;;;3.3;1.4;;;;;;;;;;;;;
2020/02/20 15:11:49;;;;;;;2.4;1.2;;;;;;;;;;;;;
2020/02/20 15:14:15;;;;;;;3.5;1.2;;;;;;;;;;;;;
2020/02/20 15:16:46;;;;;;;2.6;1.3;;;;;;;;;;;;;
2020/02/20 15:19:08;;;;;;;4.4;1.2;;;;;;;;;;;;;
2020/02/20 15:21:41;;;;;;;3.1;1.3;;;;;;;;;;;;;
2020/02/20 15:24:03;;;;;;;1.4;1;;;;;;;;;;;;;
2020/02/20 15:26:28;;;;;;;3.4;1;;;;;;;;;;;;;
2020/02/20 15:28:50;;;;;;;2.1;0.9;;;;;;;;;;;;;
2020/02/20 15:31:15;;;;;;;3.8;1.1;;;;;;;;;;;;;
2020/02/20 15:33:46;;;;;;;3.9;1.2;;;;;;;;;;;;;
2020/02/20 15:36:22;;;;;;;6;1.5;;;;;;;;;;;;;
2020/02/20 15:38:43;;;;;;;4.2;1.5;;;;;;;;;;;;;
2020/02/20 15:41:15;;;;;;;3.8;1.1;;;;;;;;;;;;;
2020/02/20 15:44:19;;;;;;;3.8;2;;;;;;;;;;;;;
2020/02/20 15:46:35;;;;;;;8;2.2;;;;;;;;;;;;;
2020/02/20 15:49:02;;;;;;;10.2;1.8;;;;;;;;;;;;;
2020/02/20 15:51:29;;;;;;;5.4;1.5;;;;;;;;;;;;;
2020/02/20 15:53:50;;;;;;;3.6;1.4;;;;;;;;;;;;;
2020/02/20 15:56:23;;;;;;;8.8;1.6;;;;;;;;;;;;;
2020/02/20 15:58:44;;;;;;;12.6;2.3;;;;;;;;;;;;;
2020/02/20 16:01:10;;;;;;;10.2;1.9;;;;;;;;;;;;;
2020/02/20 16:03:36;;;;;;;13.1;2.3;;;;;;;;;;;;;
2020/02/20 16:06:26;;;;;;;20.7;2.6;;;;;;;;;;;;;
2020/02/20 16:11:03;;;;;;;21.5;3.2;;;;;;;;;;;;;
2020/02/20 16:13:30;;;;;;;22.2;2.7;;;;;;;;;;;;;
2020/02/20 16:15:57;;;;;;;11.4;2.1;;;;;;;;;;;;;
2020/02/20 16:18:20;;;;;;;11.7;2.1;;;;;;;;;;;;;
2020/02/20 16:23:24;;;;;;;10.4;1.9;;;;;;;;;;;;;
2020/02/20 16:26:00;;;;;;;11.6;4.6;;;;;;;;;;;;;
2020/02/20 16:28:28;;;;;;;9.8;4.5;;;;;;;;;;;;;
2020/02/20 16:30:56;;;;;;;13;2.5;;;;;;;;;;;;;
2020/02/20 16:33:20;;;;;;;6.3;2.3;;;;;;;;;;;;;
2020/02/20 16:38:10;;;;;;;12.9;3.1;;;;;;;;;;;;;
2020/02/20 16:40:33;;;;;;;7.2;2.7;;;;;;;;;;;;;
2020/02/20 16:43:02;;;;;;;9;3.3;;;;;;;;;;;;;
2020/02/20 16:45:35;;;;;;;8.7;3.9;;;;;;;;;;;;;
2020/02/20 16:47:56;;;;;;;8.9;4;;;;;;;;;;;;;
2020/02/20 16:50:20;;;;;;;11.2;4.6;;;;;;;;;;;;;
2020/02/20 16:52:50;;;;;;;15.1;5.5;;;;;;;;;;;;;
2020/02/20 16:55:15;;;;;;;22.9;6.3;;;;;;;;;;;;;
2020/02/20 16:57:41;;;;;;;18.6;7.2;;;;;;;;;;;;;
2020/02/20 17:00:10;;;;;;;18.6;8.2;;;;;;;;;;;;;
2020/02/20 17:02:33;;;;;;;21.5;8.6;;;;;;;;;;;;;
2020/02/20 17:04:58;;;;;;;27.4;9.6;;;;;;;;;;;;;
2020/02/20 17:07:21;;;;;;;22.8;8.6;;;;;;;;;;;;;
2020/02/20 17:09:49;;;;;;;18.1;6.1;;;;;;;;;;;;;
2020/02/20 17:12:16;;;;;;;25.7;7.6;;;;;;;;;;;;;
2020/02/20 17:14:38;;;;;;;16.5;8.3;;;;;;;;;;;;;
2020/02/20 17:18:13;;;;;;;17.2;8.5;;;;;;;;;;;;;
2020/02/20 17:22:28;;;;;;;21.2;10.7;;;;;;;;;;;;;
2020/02/20 17:25:20;;;;;;;24;10.3;;;;;;;;;;;;;
2020/02/20 17:30:07;;;;;;;13.6;6.7;;;;;;;;;;;;;
2020/02/20 17:32:30;;;;;;;34.4;16.3;;;;;;;;;;;;;
2020/02/20 17:35:24;;;;;;;16.4;7.3;;;;;;;;;;;;;
2020/02/20 17:37:36;;;;;;;26.9;6.3;;;;;;;;;;;;;
2020/02/20 17:39:59;;;;;;;12.8;5.7;;;;;;;;;;;;;
2020/02/20 17:42:22;;;;;;;19.8;11.3;;;;;;;;;;;;;
2020/02/20 17:44:53;;;;;;;24.5;13.7;;;;;;;;;;;;;
2020/02/20 17:47:17;;;;;;;13.4;7.4;;;;;;;;;;;;;
2020/02/20 17:49:52;;;;;;;8.1;5.5;;;;;;;;;;;;;
2020/02/20 17:52:14;;;;;;;7.7;5.9;;;;;;;;;;;;;
2020/02/20 17:57:15;;;;;;;10;5;;;;;;;;;;;;;
2020/02/20 17:59:41;;;;;;;10.7;6;;;;;;;;;;;;;
2020/02/20 18:02:06;;;;;;;12.2;4.6;;;;;;;;;;;;;
2020/02/20 18:04:35;;;;;;;8.8;4.9;;;;;;;;;;;;;
2020/02/20 18:07:00;;;;;;;16.9;8;;;;;;;;;;;;;
2020/02/20 18:09:30;;;;;;;16.2;9.1;;;;;;;;;;;;;
2020/02/20 18:11:52;;;;;;;14;8.3;;;;;;;;;;;;;
2020/02/20 18:14:17;;;;;;;13.5;8.5;;;;;;;;;;;;;
2020/02/20 18:16:42;;;;;;;13.8;8;;;;;;;;;;;;;
2020/02/20 18:19:17;;;;;;;11.9;7.6;;;;;;;;;;;;;
2020/02/20 18:21:36;;;;;;;13.1;9;;;;;;;;;;;;;
2020/02/20 18:24:02;;;;;;;13.7;8.8;;;;;;;;;;;;;
2020/02/20 18:27:19;;;;;;;15.3;10.8;;;;;;;;;;;;;
2020/02/20 18:30:30;;;;;;;19.6;13.7;;;;;;;;;;;;;
2020/02/20 18:31:20;;;;;;;20.7;14.3;;;;;;;;;;;;;
2020/02/20 18:33:54;;;;;;;25.4;17.2;;;;;;;;;;;;;
2020/02/20 18:36:27;;;;;;;27.4;19;;;;;;;;;;;;;
2020/02/20 18:41:13;;;;;;;28.2;19.5;;;;;;;;;;;;;
2020/02/20 18:43:39;;;;;;;30.1;20.5;;;;;;;;;;;;;
2020/02/20 18:48:49;;;;;;;21.2;13.4;;;;;;;;;;;;;
2020/02/20 18:56:00;;;;;;;13.3;7.6;;;;;;;;;;;;;
2020/02/20 18:58:18;;;;;;;10.8;5.4;;;;;;;;;;;;;
2020/02/20 19:00:46;;;;;;;4;2.9;;;;;;;;;;;;;
2020/02/20 19:03:09;;;;;;;5.9;3.8;;;;;;;;;;;;;
2020/02/20 19:05:39;;;;;;;27.2;15;;;;;;;;;;;;;
2020/02/20 19:08:12;;;;;;;30.3;15.1;;;;;;;;;;;;;
2020/02/20 19:13:02;;;;;;;24.2;12.9;;;;;;;;;;;;;
2020/02/20 19:15:30;;;;;;;28.2;14.7;;;;;;;;;;;;;
2020/02/20 19:18:15;;;;;;;33.2;16.5;;;;;;;;;;;;;
2020/02/20 19:20:27;;;;;;;33.1;17.2;;;;;;;;;;;;;
2020/02/20 19:23:02;;;;;;;30.4;17;;;;;;;;;;;;;
2020/02/20 19:25:32;;;;;;;43.2;25.5;;;;;;;;;;;;;
2020/02/20 19:28:16;;;;;;;37.1;22.5;;;;;;;;;;;;;
2020/02/20 19:30:42;;;;;;;39.5;25.3;;;;;;;;;;;;;
2020/02/20 19:33:11;;;;;;;52.5;35.3;;;;;;;;;;;;;
2020/02/20 19:35:32;;;;;;;32.7;23;;;;;;;;;;;;;
2020/02/20 19:38:00;;;;;;;34.3;23.5;;;;;;;;;;;;;
2020/02/20 19:40:30;;;;;;;33.4;23.6;;;;;;;;;;;;;
2020/02/20 19:42:56;;;;;;;35.1;25.2;;;;;;;;;;;;;
2020/02/20 19:45:25;;;;;;;26.7;20.1;;;;;;;;;;;;;
2020/02/20 19:48:17;;;;;;;23.7;17.7;;;;;;;;;;;;;
2020/02/20 19:50:38;;;;;;;18.7;13.2;;;;;;;;;;;;;
2020/02/20 19:53:02;;;;;;;12.8;9.9;;;;;;;;;;;;;
2020/02/20 19:55:28;;;;;;;12.9;9.4;;;;;;;;;;;;;
2020/02/20 19:57:54;;;;;;;16.7;11.9;;;;;;;;;;;;;
2020/02/20 20:00:22;;;;;;;24.8;16.6;;;;;;;;;;;;;
2020/02/20 20:02:48;;;;;;;92;60.8;;;;;;;;;;;;;
2020/02/20 20:05:13;;;;;;;213.7;134.5;;;;;;;;;;;;;
2020/02/20 20:07:42;;;;;;;23.9;17.4;;;;;;;;;;;;;
2020/02/20 20:10:04;;;;;;;25.5;18.7;;;;;;;;;;;;;
2020/02/20 20:12:29;;;;;;;24.2;18.5;;;;;;;;;;;;;
2020/02/20 20:17:34;;;;;;;29.1;21.9;;;;;;;;;;;;;
2020/02/20 20:20:07;;;;;;;29.6;21.3;;;;;;;;;;;;;
2020/02/20 20:22:38;;;;;;;26.7;20.2;;;;;;;;;;;;;
2020/02/20 20:24:59;;;;;;;26;19.8;;;;;;;;;;;;;
2020/02/20 20:30:07;;;;;;;28.5;21.5;;;;;;;;;;;;;
2020/02/20 20:32:36;;;;;;;16.8;13.9;;;;;;;;;;;;;
2020/02/20 20:34:41;;;;;;;18.2;14.8;;;;;;;;;;;;;
2020/02/20 20:37:06;;;;;;;13.6;9.4;;;;;;;;;;;;;
2020/02/20 20:39:33;;;;;;;14.7;12.7;;;;;;;;;;;;;
2020/02/20 20:42:15;;;;;;;15.7;11.7;;;;;;;;;;;;;
2020/02/20 20:45:17;;;;;;;14.8;11.5;;;;;;;;;;;;;
2020/02/20 20:47:34;;;;;;;13.2;10;;;;;;;;;;;;;
2020/02/20 20:50:18;;;;;;;12.3;10;;;;;;;;;;;;;
2020/02/20 20:52:50;;;;;;;18.1;13;;;;;;;;;;;;;
2020/02/20 20:55:13;;;;;;;18.5;14.1;;;;;;;;;;;;;
2020/02/20 20:57:37;;;;;;;17.2;13;;;;;;;;;;;;;
2020/02/20 21:00:15;;;;;;;24;19.2;;;;;;;;;;;;;
2020/02/20 21:02:38;;;;;;;20.4;15.2;;;;;;;;;;;;;
2020/02/20 21:06:12;;;;;;;18.1;13.6;;;;;;;;;;;;;
2020/02/20 21:07:45;;;;;;;16.6;11.4;;;;;;;;;;;;;
2020/02/20 21:10:22;;;;;;;15.9;12;;;;;;;;;;;;;
2020/02/20 21:12:44;;;;;;;12.1;9.6;;;;;;;;;;;;;
2020/02/20 21:15:08;;;;;;;11.7;8.7;;;;;;;;;;;;;
2020/02/20 21:17:36;;;;;;;13.1;8.5;;;;;;;;;;;;;
2020/02/20 21:20:02;;;;;;;12.8;8.4;;;;;;;;;;;;;
2020/02/20 21:22:26;;;;;;;9.8;7.7;;;;;;;;;;;;;
2020/02/20 21:25:00;;;;;;;14.9;9;;;;;;;;;;;;;
2020/02/20 21:27:19;;;;;;;15.3;9;;;;;;;;;;;;;
2020/02/20 21:29:44;;;;;;;15;9.9;;;;;;;;;;;;;
2020/02/20 21:32:18;;;;;;;14;9.6;;;;;;;;;;;;;
2020/02/20 21:34:50;;;;;;;12.7;8.2;;;;;;;;;;;;;
2020/02/20 21:37:11;;;;;;;13.1;8.7;;;;;;;;;;;;;
2020/02/20 21:39:36;;;;;;;11.9;8.1;;;;;;;;;;;;;
2020/02/20 21:42:09;;;;;;;11.9;8.7;;;;;;;;;;;;;
2020/02/20 21:44:32;;;;;;;13.5;8.7;;;;;;;;;;;;;
2020/02/20 21:47:53;;;;;;;12.8;9.1;;;;;;;;;;;;;
2020/02/20 21:49:37;;;;;;;10.8;7.5;;;;;;;;;;;;;